Time,TemperatureF,DewpointF,PressureIn,WindDirection,WindDirectionDegrees,WindSpeedMPH,WindSpeedGustMPH,Humidity,HourlyPrecipIn,Conditions,Clouds,dailyrainin,SolarRadiationWatts/m^2,SoftwareType,DateUTC
2013-02-17 00:14:00,33.2,20.0,30.05,NW,325,0.0,-999.0,58,-99.99,,,0.00,0,weatherlink.com 1.10,2013-02-17 08:14:00,
2013-02-17 00:29:00,32.7,20.0,30.04,NW,326,0.0,-999.0,59,-99.99,,,0.00,0,weatherlink.com 1.10,2013-02-17 08:29:00,
2013-02-17 00:44:00,32.6,20.0,30.04,NW,326,0.0,-999.0,61,-99.99,,,0.00,0,weatherlink.com 1.10,2013-02-17 08:44:00,
2013-02-17 00:59:00,32.7,20.0,30.04,NW,326,0.0,-999.0,61,-99.99,,,0.00,0,weatherlink.com 1.10,2013-02-17 08:59:00,
2013-02-17 01:14:00,32.5,20.0,30.03,NW,326,0.0,-999.0,61,-99.99,,,0.00,0,weatherlink.com 1.10,2013-02-17 09:14:00,
2013-02-17 01:29:00,32.1,20.0,30.03,NW,326,0.0,-999.0,61,-99.99,,,0.00,0,weatherlink.com 1.10,2013-02-17 09:29:00,
2013-02-17 01:44:00,32.2,20.0,30.03,NW,325,0.0,-999.0,62,-99.99,,,0.00,0,weatherlink.com 1.10,2013-02-17 09:44:00,
2013-02-17 01:59:00,32.5,20.0,30.03,NW,325,0.0,-999.0,61,-99.99,,,0.00,0,weatherlink.com 1.10,2013-02-17 09:59:00,
2013-02-17 02:14:00,32.5,19.0,30.03,NW,326,1.0,-999.0,59,-99.99,,,0.00,0,weatherlink.com 1.10,2013-02-17 10:14:00,
2013-02-17 02:29:00,35.3,19.0,30.03,NW,325,3.0,-999.0,52,-99.99,,,0.00,0,weatherlink.com 1.10,2013-02-17 10:29:00,
2013-02-17 02:44:00,38.6,20.0,30.02,NW,325,1.0,-999.0,47,-99.99,,,0.00,0,weatherlink.com 1.10,2013-02-17 10:44:00,
2013-02-17 02:59:00,39.5,19.0,30.01,NW,325,0.0,-999.0,44,-99.99,,,0.00,0,weatherlink.com 1.10,2013-02-17 10:59:00,
2013-02-17 03:13:00,39.8,19.0,30.01,NW,325,0.0,-999.0,44,-99.99,,,0.00,0,weatherlink.com 1.10,2013-02-17 11:13:00,
2013-02-17 03:29:00,40.7,22.0,30.01,WSW,245,4.0,-999.0,48,-99.99,,,0.00,0,weatherlink.com 1.10,2013-02-17 11:29:00,
2013-02-17 03:44:00,40.5,23.0,30.01,WSW,246,0.0,-999.0,51,-99.99,,,0.00,0,weatherlink.com 1.10,2013-02-17 11:44:00,
2013-02-17 03:59:00,40.7,23.0,30.00,WSW,243,3.0,-999.0,49,-99.99,,,0.00,0,weatherlink.com 1.10,2013-02-17 11:59:00,
2013-02-17 04:14:00,41.4,23.0,30.00,WSW,255,2.0,-999.0,49,-99.99,,,0.00,0,weatherlink.com 1.10,2013-02-17 12:14:00,
2013-02-17 04:29:00,41.4,24.0,30.00,WSW,248,3.0,-999.0,50,-99.99,,,0.00,0,weatherlink.com 1.10,2013-02-17 12:29:00,
2013-02-17 04:45:00,40.9,24.0,30.00,West,268,2.0,-999.0,51,-99.99,,,0.00,0,weatherlink.com 1.10,2013-02-17 12:45:00,
2013-02-17 04:59:00,40.3,24.0,30.00,West,262,3.0,-999.0,53,-99.99,,,0.00,0,weatherlink.com 1.10,2013-02-17 12:59:00,
2013-02-17 05:15:00,40.6,25.0,30.00,West,262,1.0,-999.0,55,-99.99,,,0.00,0,weatherlink.com 1.10,2013-02-17 13:15:00,
2013-02-17 05:29:00,40.3,25.0,30.00,WSW,252,2.0,-999.0,54,-99.99,,,0.00,0,weatherlink.com 1.10,2013-02-17 13:29:00,
2013-02-17 05:44:00,40.1,25.0,30.00,WSW,247,4.0,-999.0,56,-99.99,,,0.00,0,weatherlink.com 1.10,2013-02-17 13:44:00,
2013-02-17 06:00:00,40.0,26.0,30.00,West,265,3.0,-999.0,58,-99.99,,,0.00,0,weatherlink.com 1.10,2013-02-17 14:00:00,
2013-02-17 06:14:00,40.0,27.0,30.00,WSW,254,3.0,-999.0,59,-99.99,,,0.00,0,weatherlink.com 1.10,2013-02-17 14:14:00,
2013-02-17 06:29:00,40.8,27.0,30.01,WSW,244,3.0,-999.0,59,-99.99,,,0.00,0,weatherlink.com 1.10,2013-02-17 14:29:00,
2013-02-17 06:44:00,41.1,28.0,30.00,WSW,249,2.0,-999.0,59,-99.99,,,0.00,9,weatherlink.com 1.10,2013-02-17 14:44:00,
2013-02-17 06:59:00,40.6,27.0,30.00,WSW,256,4.0,-999.0,59,-99.99,,,0.00,16,weatherlink.com 1.10,2013-02-17 14:59:00,
2013-02-17 07:14:00,40.6,28.0,30.00,West,267,4.0,-999.0,60,-99.99,,,0.00,23,weatherlink.com 1.10,2013-02-17 15:14:00,
2013-02-17 07:30:00,41.6,28.0,30.01,WSW,248,3.0,-999.0,59,-99.99,,,0.00,26,weatherlink.com 1.10,2013-02-17 15:30:00,
2013-02-17 07:44:00,42.9,28.0,30.01,WSW,255,2.0,-999.0,57,-99.99,,,0.00,37,weatherlink.com 1.10,2013-02-17 15:44:00,
2013-02-17 07:59:00,44.7,30.0,30.02,West,262,4.0,-999.0,56,-99.99,,,0.00,225,weatherlink.com 1.10,2013-02-17 15:59:00,
2013-02-17 08:15:00,47.1,27.0,30.01,NW,324,5.0,-999.0,46,-99.99,,,0.00,276,weatherlink.com 1.10,2013-02-17 16:15:00,
2013-02-17 08:30:00,49.0,27.0,30.02,NW,322,3.0,-999.0,43,-99.99,,,0.00,91,weatherlink.com 1.10,2013-02-17 16:30:00,
2013-02-17 08:45:00,49.3,29.0,30.02,NNW,332,3.0,-999.0,45,-99.99,,,0.00,371,weatherlink.com 1.10,2013-02-17 16:45:00,
2013-02-17 09:00:00,49.4,31.0,30.02,NNW,333,6.0,-999.0,49,-99.99,,,0.00,417,weatherlink.com 1.10,2013-02-17 17:00:00,
2013-02-17 09:15:00,49.7,31.0,30.03,NNW,331,6.0,-999.0,48,-99.99,,,0.00,455,weatherlink.com 1.10,2013-02-17 17:15:00,
2013-02-17 09:30:00,50.1,30.0,30.03,NNW,336,10.0,-999.0,47,-99.99,,,0.00,492,weatherlink.com 1.10,2013-02-17 17:30:00,
2013-02-17 09:45:00,50.3,30.0,30.03,NNW,334,8.0,-999.0,46,-99.99,,,0.00,533,weatherlink.com 1.10,2013-02-17 17:45:00,
2013-02-17 10:00:00,51.4,31.0,30.03,NNW,331,5.0,-999.0,45,-99.99,,,0.00,557,weatherlink.com 1.10,2013-02-17 18:00:00,
2013-02-17 10:15:00,52.1,31.0,30.03,NNW,331,9.0,-999.0,45,-99.99,,,0.00,584,weatherlink.com 1.10,2013-02-17 18:15:00,
2013-02-17 10:30:00,52.9,31.0,30.03,WNW,297,9.0,-999.0,44,-99.99,,,0.00,592,weatherlink.com 1.10,2013-02-17 18:30:00,
2013-02-17 10:45:00,54.5,32.0,30.03,WNW,283,10.0,-999.0,43,-99.99,,,0.00,642,weatherlink.com 1.10,2013-02-17 18:45:00,
2013-02-17 11:00:00,55.5,33.0,30.03,SW,236,9.0,-999.0,42,-99.99,,,0.00,663,weatherlink.com 1.10,2013-02-17 19:00:00,
2013-02-17 11:15:00,56.0,32.0,30.02,West,281,9.0,-999.0,41,-99.99,,,0.00,670,weatherlink.com 1.10,2013-02-17 19:15:00,
2013-02-17 11:30:00,56.8,33.0,30.02,NW,319,4.0,-999.0,40,-99.99,,,0.00,686,weatherlink.com 1.10,2013-02-17 19:30:00,
2013-02-17 11:46:00,56.8,31.0,30.02,NNW,334,16.0,-999.0,37,-99.99,,,0.00,687,weatherlink.com 1.10,2013-02-17 19:46:00,
2013-02-17 12:00:00,57.1,31.0,30.01,NNW,329,8.0,-999.0,37,-99.99,,,0.00,705,weatherlink.com 1.10,2013-02-17 20:00:00,
2013-02-17 12:15:00,56.5,29.0,30.00,NNW,329,16.0,-999.0,35,-99.99,,,0.00,696,weatherlink.com 1.10,2013-02-17 20:15:00,
2013-02-17 12:30:00,56.7,28.0,30.00,NNW,339,10.0,-999.0,33,-99.99,,,0.00,701,weatherlink.com 1.10,2013-02-17 20:30:00,
2013-02-17 12:45:00,57.6,28.0,29.99,NNW,338,11.0,-999.0,32,-99.99,,,0.00,684,weatherlink.com 1.10,2013-02-17 20:45:00,
2013-02-17 13:01:00,58.1,28.0,29.98,NNW,329,6.0,-999.0,32,-99.99,,,0.00,675,weatherlink.com 1.10,2013-02-17 21:01:00,
2013-02-17 13:15:00,57.4,30.0,29.98,NNW,329,9.0,-999.0,35,-99.99,,,0.00,659,weatherlink.com 1.10,2013-02-17 21:15:00,
2013-02-17 13:31:00,57.8,30.0,29.98,NNW,331,10.0,-999.0,35,-99.99,,,0.00,626,weatherlink.com 1.10,2013-02-17 21:31:00,
2013-02-17 13:46:00,57.5,31.0,29.98,NNW,342,7.0,-999.0,37,-99.99,,,0.00,612,weatherlink.com 1.10,2013-02-17 21:46:00,
2013-02-17 14:01:00,57.4,31.0,29.98,NNW,344,8.0,-999.0,37,-99.99,,,0.00,566,weatherlink.com 1.10,2013-02-17 22:01:00,
2013-02-17 14:16:00,57.1,30.0,29.98,NNW,338,11.0,-999.0,36,-99.99,,,0.00,550,weatherlink.com 1.10,2013-02-17 22:16:00,
2013-02-17 14:31:00,56.3,31.0,29.98,NE,52,3.0,-999.0,38,-99.99,,,0.00,506,weatherlink.com 1.10,2013-02-17 22:31:00,
2013-02-17 14:46:00,56.5,30.0,29.98,NNW,336,7.0,-999.0,37,-99.99,,,0.00,476,weatherlink.com 1.10,2013-02-17 22:46:00,
2013-02-17 15:01:00,56.2,29.0,29.98,NNW,337,7.0,-999.0,36,-99.99,,,0.00,439,weatherlink.com 1.10,2013-02-17 23:01:00,
2013-02-17 15:16:00,56.0,30.0,29.98,NNW,327,4.0,-999.0,37,-99.99,,,0.00,394,weatherlink.com 1.10,2013-02-17 23:16:00,
2013-02-17 15:31:00,56.3,29.0,29.98,NNW,341,9.0,-999.0,36,-99.99,,,0.00,352,weatherlink.com 1.10,2013-02-17 23:31:00,
2013-02-17 15:46:00,55.7,28.0,29.97,NW,323,6.0,-999.0,35,-99.99,,,0.00,302,weatherlink.com 1.10,2013-02-17 23:46:00,
2013-02-17 16:01:00,55.1,29.0,29.97,NW,319,8.0,-999.0,37,-99.99,,,0.00,265,weatherlink.com 1.10,2013-02-18 00:01:00,
2013-02-17 16:16:00,54.6,29.0,29.98,NNW,329,5.0,-999.0,38,-99.99,,,0.00,211,weatherlink.com 1.10,2013-02-18 00:16:00,
2013-02-17 16:31:00,53.7,29.0,29.98,NNW,334,4.0,-999.0,39,-99.99,,,0.00,160,weatherlink.com 1.10,2013-02-18 00:31:00,
2013-02-17 16:46:00,52.5,29.0,29.98,NNW,333,8.0,-999.0,41,-99.99,,,0.00,105,weatherlink.com 1.10,2013-02-18 00:46:00,
2013-02-17 17:01:00,51.7,30.0,29.98,NNW,331,7.0,-999.0,43,-99.99,,,0.00,58,weatherlink.com 1.10,2013-02-18 01:01:00,
2013-02-17 17:16:00,50.9,29.0,29.99,NNW,327,8.0,-999.0,44,-99.99,,,0.00,26,weatherlink.com 1.10,2013-02-18 01:16:00,
2013-02-17 17:31:00,50.0,30.0,29.99,NNW,328,7.0,-999.0,46,-99.99,,,0.00,11,weatherlink.com 1.10,2013-02-18 01:31:00,
2013-02-17 17:46:00,49.2,30.0,30.00,NW,326,3.0,-999.0,48,-99.99,,,0.00,0,weatherlink.com 1.10,2013-02-18 01:46:00,
2013-02-17 18:01:00,48.2,31.0,30.00,WSW,252,4.0,-999.0,51,-99.99,,,0.00,0,weatherlink.com 1.10,2013-02-18 02:01:00,
2013-02-17 18:16:00,47.3,31.0,30.01,West,278,3.0,-999.0,53,-99.99,,,0.00,0,weatherlink.com 1.10,2013-02-18 02:16:00,
2013-02-17 18:31:00,46.5,30.0,30.01,West,271,5.0,-999.0,54,-99.99,,,0.00,0,weatherlink.com 1.10,2013-02-18 02:31:00,
2013-02-17 18:46:00,45.9,30.0,30.01,WSW,254,5.0,-999.0,55,-99.99,,,0.00,0,weatherlink.com 1.10,2013-02-18 02:46:00,
2013-02-17 19:01:00,45.6,30.0,30.01,WSW,256,4.0,-999.0,55,-99.99,,,0.00,0,weatherlink.com 1.10,2013-02-18 03:01:00,
2013-02-17 19:16:00,44.5,30.0,30.01,WSW,252,4.0,-999.0,57,-99.99,,,0.00,0,weatherlink.com 1.10,2013-02-18 03:16:00,
2013-02-17 19:31:00,43.7,30.0,30.02,WSW,250,6.0,-999.0,58,-99.99,,,0.00,0,weatherlink.com 1.10,2013-02-18 03:31:00,
2013-02-17 19:46:00,44.0,31.0,30.02,West,279,6.0,-999.0,61,-99.99,,,0.00,0,weatherlink.com 1.10,2013-02-18 03:46:00,
2013-02-17 20:01:00,43.9,31.0,30.03,West,272,2.0,-999.0,61,-99.99,,,0.00,0,weatherlink.com 1.10,2013-02-18 04:01:00,
2013-02-17 20:16:00,43.1,31.0,30.03,WSW,256,2.0,-999.0,62,-99.99,,,0.00,0,weatherlink.com 1.10,2013-02-18 04:16:00,
2013-02-17 20:31:00,42.5,31.0,30.04,West,261,0.0,-999.0,64,-99.99,,,0.00,0,weatherlink.com 1.10,2013-02-18 04:31:00,
2013-02-17 20:46:00,42.2,32.0,30.04,West,261,3.0,-999.0,67,-99.99,,,0.00,0,weatherlink.com 1.10,2013-02-18 04:46:00,
2013-02-17 21:01:00,42.2,33.0,30.04,West,259,3.0,-999.0,69,-99.99,,,0.00,0,weatherlink.com 1.10,2013-02-18 05:01:00,
2013-02-17 21:16:00,43.0,33.0,30.05,WSW,252,3.0,-999.0,68,-99.99,,,0.00,0,weatherlink.com 1.10,2013-02-18 05:16:00,
2013-02-17 21:31:00,42.6,32.0,30.05,WSW,257,2.0,-999.0,67,-99.99,,,0.00,0,weatherlink.com 1.10,2013-02-18 05:31:00,
2013-02-17 21:46:00,43.0,31.0,30.05,NNW,327,8.0,-999.0,63,-99.99,,,0.00,0,weatherlink.com 1.10,2013-02-18 05:46:00,
2013-02-17 22:01:00,43.8,31.0,30.04,West,271,3.0,-999.0,60,-99.99,,,0.00,0,weatherlink.com 1.10,2013-02-18 06:01:00,
2013-02-17 22:16:00,41.7,27.0,30.04,West,275,2.0,-999.0,56,-99.99,,,0.00,0,weatherlink.com 1.10,2013-02-18 06:16:00,
2013-02-17 22:31:00,41.3,29.0,30.04,WNW,302,4.0,-999.0,61,-99.99,,,0.00,0,weatherlink.com 1.10,2013-02-18 06:31:00,
2013-02-17 22:46:00,41.8,29.0,30.04,West,268,2.0,-999.0,62,-99.99,,,0.00,0,weatherlink.com 1.10,2013-02-18 06:46:00,
2013-02-17 23:01:00,41.5,30.0,30.04,West,269,2.0,-999.0,63,-99.99,,,0.00,0,weatherlink.com 1.10,2013-02-18 07:01:00,
2013-02-17 23:16:00,41.4,30.0,30.04,West,266,3.0,-999.0,64,-99.99,,,0.00,0,weatherlink.com 1.10,2013-02-18 07:16:00,
2013-02-17 23:31:00,40.7,27.0,30.04,West,261,2.0,-999.0,59,-99.99,,,0.00,0,weatherlink.com 1.10,2013-02-18 07:31:00,
2013-02-17 23:46:00,40.3,25.0,30.04,West,261,3.0,-999.0,55,-99.99,,,0.00,0,weatherlink.com 1.10,2013-02-18 07:46:00,